To NAV CANADA Home Page Login to a new session Search on AWWS site Feedback and Comments Disclaimer Vers la page française équivalente Tips FAQ What's new on the site To the Forecasts and Observations / NOTAM section To "File a Flight Plan" website Publications and other links Update of the User's profile FIC Telephone Numbers My Weather Data Folder Route Weather Data Regional Weather Data Local Weather Data To the Forecasts and Observations / NOTAM section
Request Generated 10/18/2017 at 03:55:07 UTC . Weather information available at that time is displayed.

METAR/TAF

GANDER/GANDER INTL/NL    

METAR CYQX 180300Z 28010KT 15SM BKN045 01/M05 A2996 RMK SC6 SLP155=
METAR CYQX 180200Z 28009KT 15SM FEW047 01/M04 A2996 RMK SC2 SLP153=
METAR CYQX 180100Z 30010G17KT 15SM FEW026 BKN043 01/M03 A2994 RMK
SC2SC5 SLP148=

TAF CYQX 172340Z 1800/1824 30007KT P6SM BKN040 OVC070 TEMPO 1800/1801
5SM -SHRA BR BKN020 OVC070
FM180100 30008KT P6SM BKN030
BECMG 1804/1806 SCT030
FM180900 24008KT P6SM FEW040
FM181600 22012KT P6SM -SHRA BKN050
BECMG 1820/1822 26010KT
FM182200 19012KT P6SM BKN050
RMK NXT FCST BY 180600Z=
Your time UTC time
Weather data provided by Environment Canada and NAV CANADA